Phoenix, Arizona
Traffic Map
Current Weather Conditions
Phoenix, Arizona
Broken Clouds
Broken Clouds
32°
Feels Like: 32°
Wind Chill: 32° Ceiling: 15000
Heat Index: 32° Visibility: 10mi
Dew Point: 13° Wind: 14mph
Humidity: 31% Direction: 120° (ESE)
Pressure: 29.91in Gusts: 20mph
Raw Report DataKPHX 290151Z 12012G17KT 10SM SCT120 BKN150 BKN190 BKN250 32/13 A2991 RMK AO2 PK WND 13027/0122 SLP111 T03170128 $
Traffic Incident Summary
Active as of:
Severity:
Category:
InformationThere was an issue retrieving the traffic information for this location. Please try a different location or try again shortly.
Advertisements
Track Severe Weather on mobile